sensor_id;sensor_type;location;lat;lon;timestamp;pressure;altitude;pressure_sealevel;temperature;humidity
18533;BME280;9396;51.510;11.934;2023-02-12T00:01:00;102436.50;;;6.67;100.00
18533;BME280;9396;51.510;11.934;2023-02-12T00:03:26;102438.75;;;6.58;100.00
18533;BME280;9396;51.510;11.934;2023-02-12T00:05:59;102432.44;;;6.60;100.00
18533;BME280;9396;51.510;11.934;2023-02-12T00:08:26;102427.25;;;6.59;100.00
18533;BME280;9396;51.510;11.934;2023-02-12T00:10:53;102428.84;;;6.61;100.00
18533;BME280;9396;51.510;11.934;2023-02-12T00:13:19;102431.75;;;6.57;100.00
18533;BME280;9396;51.510;11.934;2023-02-12T00:15:46;102435.66;;;6.49;100.00
18533;BME280;9396;51.510;11.934;2023-02-12T00:18:13;102437.50;;;6.47;100.00
18533;BME280;9396;51.510;11.934;2023-02-12T00:20:39;102430.97;;;6.55;100.00
18533;BME280;9396;51.510;11.934;2023-02-12T00:23:08;102435.31;;;6.56;100.00
18533;BME280;9396;51.510;11.934;2023-02-12T00:25:40;102429.50;;;6.49;100.00
18533;BME280;9396;51.510;11.934;2023-02-12T00:28:06;102433.06;;;6.48;100.00
18533;BME280;9396;51.510;11.934;2023-02-12T00:30:34;102436.72;;;6.45;100.00
18533;BME280;9396;51.510;11.934;2023-02-12T00:33:00;102439.13;;;6.50;100.00
18533;BME280;9396;51.510;11.934;2023-02-12T00:35:27;102443.41;;;6.53;100.00
18533;BME280;9396;51.510;11.934;2023-02-12T00:37:54;102446.66;;;6.58;100.00
18533;BME280;9396;51.510;11.934;2023-02-12T00:40:22;102442.47;;;6.53;100.00
18533;BME280;9396;51.510;11.934;2023-02-12T00:42:48;102445.03;;;6.55;100.00
18533;BME280;9396;51.510;11.934;2023-02-12T00:45:15;102447.38;;;6.61;100.00
18533;BME280;9396;51.510;11.934;2023-02-12T00:47:41;102449.94;;;6.63;100.00
18533;BME280;9396;51.510;11.934;2023-02-12T00:50:09;102454.31;;;6.64;100.00
18533;BME280;9396;51.510;11.934;2023-02-12T00:52:35;102451.78;;;6.61;100.00
18533;BME280;9396;51.510;11.934;2023-02-12T00:55:02;102454.31;;;6.64;100.00
18533;BME280;9396;51.510;11.934;2023-02-12T00:57:30;102460.50;;;6.63;100.00
18533;BME280;9396;51.510;11.934;2023-02-12T00:59:58;102462.16;;;6.65;100.00
18533;BME280;9396;51.510;11.934;2023-02-12T01:02:24;102467.53;;;6.64;100.00
18533;BME280;9396;51.510;11.934;2023-02-12T01:04:51;102464.09;;;6.62;100.00
18533;BME280;9396;51.510;11.934;2023-02-12T01:07:18;102465.09;;;6.59;100.00
18533;BME280;9396;51.510;11.934;2023-02-12T01:09:44;102458.56;;;6.49;100.00
18533;BME280;9396;51.510;11.934;2023-02-12T01:12:11;102467.19;;;6.53;100.00
18533;BME280;9396;51.510;11.934;2023-02-12T01:14:39;102464.19;;;6.60;100.00
18533;BME280;9396;51.510;11.934;2023-02-12T01:17:07;102408.88;;;6.21;100.00
18533;BME280;9396;51.510;11.934;2023-02-12T01:19:33;102474.97;;;6.56;100.00
18533;BME280;9396;51.510;11.934;2023-02-12T01:22:00;102474.41;;;6.66;100.00
18533;BME280;9396;51.510;11.934;2023-02-12T01:24:26;102466.75;;;6.62;100.00
18533;BME280;9396;51.510;11.934;2023-02-12T01:26:53;102466.75;;;6.62;100.00
18533;BME280;9396;51.510;11.934;2023-02-12T01:29:20;102467.66;;;6.61;100.00
18533;BME280;9396;51.510;11.934;2023-02-12T01:31:47;102468.22;;;6.67;100.00
18533;BME280;9396;51.510;11.934;2023-02-12T01:34:14;102469.38;;;6.79;100.00
18533;BME280;9396;51.510;11.934;2023-02-12T01:36:41;102466.19;;;6.72;100.00
18533;BME280;9396;51.510;11.934;2023-02-12T01:39:09;102455.84;;;6.68;100.00
18533;BME280;9396;51.510;11.934;2023-02-12T01:41:41;102471.47;;;6.72;100.00
18533;BME280;9396;51.510;11.934;2023-02-12T01:44:14;102464.25;;;6.76;100.00
18533;BME280;9396;51.510;11.934;2023-02-12T01:46:41;102470.00;;;6.67;100.00
18533;BME280;9396;51.510;11.934;2023-02-12T01:49:12;102474.53;;;6.82;100.00
18533;BME280;9396;51.510;11.934;2023-02-12T01:51:40;102466.50;;;6.83;100.00
18533;BME280;9396;51.510;11.934;2023-02-12T01:54:10;102464.31;;;6.74;100.00
18533;BME280;9396;51.510;11.934;2023-02-12T01:56:38;102460.44;;;6.81;100.00
18533;BME280;9396;51.510;11.934;2023-02-12T01:59:05;102463.22;;;6.78;100.00
18533;BME280;9396;51.510;11.934;2023-02-12T02:01:32;102460.25;;;6.84;100.00
18533;BME280;9396;51.510;11.934;2023-02-12T02:04:01;102452.63;;;6.78;100.00
18533;BME280;9396;51.510;11.934;2023-02-12T02:06:34;102446.44;;;6.79;100.00
18533;BME280;9396;51.510;11.934;2023-02-12T02:09:02;102450.25;;;6.74;100.00
18533;BME280;9396;51.510;11.934;2023-02-12T02:11:29;102450.84;;;6.79;100.00
18533;BME280;9396;51.510;11.934;2023-02-12T02:14:13;102452.97;;;6.72;100.00
18533;BME280;9396;51.510;11.934;2023-02-12T02:17:08;102446.66;;;6.75;100.00
18533;BME280;9396;51.510;11.934;2023-02-12T02:19:54;102451.19;;;6.73;100.00
18533;BME280;9396;51.510;11.934;2023-02-12T02:22:32;102452.63;;;6.78;100.00
18533;BME280;9396;51.510;11.934;2023-02-12T02:25:31;102453.34;;;6.82;100.00
18533;BME280;9396;51.510;11.934;2023-02-12T02:28:11;102456.75;;;6.84;100.00
18533;BME280;9396;51.510;11.934;2023-02-12T02:30:45;102448.53;;;6.73;100.00
18533;BME280;9396;51.510;11.934;2023-02-12T02:33:26;102451.75;;;6.62;100.00
18533;BME280;9396;51.510;11.934;2023-02-12T02:36:14;102448.84;;;6.67;100.00
18533;BME280;9396;51.510;11.934;2023-02-12T02:38:49;102441.16;;;6.62;100.00
18533;BME280;9396;51.510;11.934;2023-02-12T02:41:20;102448.31;;;6.60;100.00
18533;BME280;9396;51.510;11.934;2023-02-12T02:43:51;102452.56;;;6.63;100.00
18533;BME280;9396;51.510;11.934;2023-02-12T02:46:24;102451.97;;;6.58;100.00
18533;BME280;9396;51.510;11.934;2023-02-12T02:48:56;102444.88;;;6.58;100.00
18533;BME280;9396;51.510;11.934;2023-02-12T02:51:27;102447.19;;;6.64;100.00
18533;BME280;9396;51.510;11.934;2023-02-12T02:53:59;102448.94;;;6.65;100.00
18533;BME280;9396;51.510;11.934;2023-02-12T02:56:28;102438.56;;;6.61;100.00
18533;BME280;9396;51.510;11.934;2023-02-12T02:58:58;102445.25;;;6.68;100.00
18533;BME280;9396;51.510;11.934;2023-02-12T03:01:31;102449.06;;;6.79;100.00
18533;BME280;9396;51.510;11.934;2023-02-12T03:04:02;102446.81;;;6.72;100.00
18533;BME280;9396;51.510;11.934;2023-02-12T03:06:34;102448.84;;;6.67;100.00
18533;BME280;9396;51.510;11.934;2023-02-12T03:09:08;102453.88;;;6.71;100.00
18533;BME280;9396;51.510;11.934;2023-02-12T03:11:38;102457.31;;;6.73;100.00
18533;BME280;9396;51.510;11.934;2023-02-12T03:14:10;102457.22;;;6.75;100.00
18533;BME280;9396;51.510;11.934;2023-02-12T03:16:44;102457.69;;;6.83;100.00
18533;BME280;9396;51.510;11.934;2023-02-12T03:19:17;102467.50;;;6.81;100.00
18533;BME280;9396;51.510;11.934;2023-02-12T03:21:48;102472.78;;;6.81;100.00
18533;BME280;9396;51.510;11.934;2023-02-12T03:24:18;102469.94;;;6.85;100.00
18533;BME280;9396;51.510;11.934;2023-02-12T03:26:50;102474.53;;;6.82;100.00
18533;BME280;9396;51.510;11.934;2023-02-12T03:29:19;102469.75;;;6.88;100.00
18533;BME280;9396;51.510;11.934;2023-02-12T03:31:57;102476.03;;;6.86;100.00
18533;BME280;9396;51.510;11.934;2023-02-12T03:34:34;102479.47;;;6.88;100.00
18533;BME280;9396;51.510;11.934;2023-02-12T03:37:09;102479.16;;;6.94;100.00
18533;BME280;9396;51.510;11.934;2023-02-12T03:39:45;102477.59;;;6.90;100.00
18533;BME280;9396;51.510;11.934;2023-02-12T03:42:19;102479.31;;;6.91;100.00
18533;BME280;9396;51.510;11.934;2023-02-12T03:44:52;102484.75;;;6.88;100.00
18533;BME280;9396;51.510;11.934;2023-02-12T03:47:26;102489.06;;;6.90;100.00
18533;BME280;9396;51.510;11.934;2023-02-12T03:50:01;102492.22;;;6.97;100.00
18533;BME280;9396;51.510;11.934;2023-02-12T03:52:32;102487.72;;;6.99;100.00
18533;BME280;9396;51.510;11.934;2023-02-12T03:54:59;102498.59;;;6.93;100.00
18533;BME280;9396;51.510;11.934;2023-02-12T03:57:30;102495.47;;;7.02;100.00
18533;BME280;9396;51.510;11.934;2023-02-12T04:00:02;102501.38;;;7.07;100.00
18533;BME280;9396;51.510;11.934;2023-02-12T04:02:30;102494.69;;;7.00;100.00
18533;BME280;9396;51.510;11.934;2023-02-12T04:05:03;102511.81;;;6.93;100.00
18533;BME280;9396;51.510;11.934;2023-02-12T04:07:30;102503.19;;;6.89;100.00
18533;BME280;9396;51.510;11.934;2023-02-12T04:09:56;102509.34;;;6.90;100.00
18533;BME280;9396;51.510;11.934;2023-02-12T04:12:33;102517.66;;;6.82;100.00
18533;BME280;9396;51.510;11.934;2023-02-12T04:15:09;102520.94;;;6.87;100.00
18533;BME280;9396;51.510;11.934;2023-02-12T04:17:46;102533.53;;;6.82;100.00
18533;BME280;9396;51.510;11.934;2023-02-12T04:20:18;102534.50;;;6.81;100.00
18533;BME280;9396;51.510;11.934;2023-02-12T04:22:54;102528.16;;;6.84;100.00
18533;BME280;9396;51.510;11.934;2023-02-12T04:25:37;102529.41;;;6.77;100.00
18533;BME280;9396;51.510;11.934;2023-02-12T04:28:12;102530.81;;;6.84;100.00
18533;BME280;9396;51.510;11.934;2023-02-12T04:30:46;102534.25;;;6.86;100.00
18533;BME280;9396;51.510;11.934;2023-02-12T04:33:18;102537.03;;;7.00;100.00
18533;BME280;9396;51.510;11.934;2023-02-12T04:35:49;102536.59;;;6.92;100.00
18533;BME280;9396;51.510;11.934;2023-02-12T04:38:18;102541.78;;;6.93;100.00
18533;BME280;9396;51.510;11.934;2023-02-12T04:40:48;102540.38;;;7.03;100.00
18533;BME280;9396;51.510;11.934;2023-02-12T04:43:25;102541.94;;;7.07;100.00
18533;BME280;9396;51.510;11.934;2023-02-12T04:45:52;102547.00;;;7.12;100.00
18533;BME280;9396;51.510;11.934;2023-02-12T04:48:20;102542.78;;;7.25;100.00
18533;BME280;9396;51.510;11.934;2023-02-12T04:50:47;102457.50;;;6.53;100.00
18533;BME280;9396;51.510;11.934;2023-02-12T04:53:14;102546.84;;;6.98;100.00
18533;BME280;9396;51.510;11.934;2023-02-12T04:55:40;102545.06;;;6.98;100.00
18533;BME280;9396;51.510;11.934;2023-02-12T04:58:07;102556.19;;;6.88;100.00
18533;BME280;9396;51.510;11.934;2023-02-12T05:00:34;102561.47;;;6.88;100.00
18533;BME280;9396;51.510;11.934;2023-02-12T05:03:01;102558.91;;;7.03;100.00
18533;BME280;9396;51.510;11.934;2023-02-12T05:05:29;102549.97;;;7.06;100.00
18533;BME280;9396;51.510;11.934;2023-02-12T05:07:55;102557.38;;;6.99;100.00
18533;BME280;9396;51.510;11.934;2023-02-12T05:10:22;102551.50;;;6.93;100.00
18533;BME280;9396;51.510;11.934;2023-02-12T05:12:51;102549.00;;;7.07;100.00
18533;BME280;9396;51.510;11.934;2023-02-12T05:15:17;102548.09;;;7.08;100.00
18533;BME280;9396;51.510;11.934;2023-02-12T05:17:44;102549.44;;;6.99;100.00
18533;BME280;9396;51.510;11.934;2023-02-12T05:20:11;102548.25;;;7.05;100.00
18533;BME280;9396;51.510;11.934;2023-02-12T05:22:40;102542.50;;;6.97;100.00
18533;BME280;9396;51.510;11.934;2023-02-12T05:25:07;102551.84;;;6.87;100.00
18533;BME280;9396;51.510;11.934;2023-02-12T05:27:33;102544.59;;;6.90;100.00
18533;BME280;9396;51.510;11.934;2023-02-12T05:30:00;102548.66;;;6.97;100.00
18533;BME280;9396;51.510;11.934;2023-02-12T05:32:27;102551.97;;;6.84;100.00
18533;BME280;9396;51.510;11.934;2023-02-12T05:34:53;102552.06;;;6.82;100.00
18533;BME280;9396;51.510;11.934;2023-02-12T05:37:20;102550.28;;;6.83;100.00
18533;BME280;9396;51.510;11.934;2023-02-12T05:39:49;102550.50;;;6.95;100.00
18533;BME280;9396;51.510;11.934;2023-02-12T05:42:15;102559.31;;;6.96;100.00
18533;BME280;9396;51.510;11.934;2023-02-12T05:44:42;102553.69;;;7.02;100.00
18533;BME280;9396;51.510;11.934;2023-02-12T05:47:09;102550.91;;;7.05;100.00
18533;BME280;9396;51.510;11.934;2023-02-12T05:49:35;102561.00;;;6.97;100.00
18533;BME280;9396;51.510;11.934;2023-02-12T05:52:02;102558.66;;;6.91;100.00
18533;BME280;9396;51.510;11.934;2023-02-12T05:54:29;102562.56;;;6.84;100.00
18533;BME280;9396;51.510;11.934;2023-02-12T05:56:57;102565.59;;;6.93;100.00
18533;BME280;9396;51.510;11.934;2023-02-12T05:59:23;102573.78;;;6.89;100.00
18533;BME280;9396;51.510;11.934;2023-02-12T06:01:51;102582.31;;;6.77;100.00
18533;BME280;9396;51.510;11.934;2023-02-12T06:04:20;102571.81;;;6.75;100.00
18533;BME280;9396;51.510;11.934;2023-02-12T06:06:48;102570.19;;;6.73;100.00
18533;BME280;9396;51.510;11.934;2023-02-12T06:09:15;102572.84;;;6.73;100.00
18533;BME280;9396;51.510;11.934;2023-02-12T06:11:42;102577.25;;;6.89;100.00
18533;BME280;9396;51.510;11.934;2023-02-12T06:14:13;102578.75;;;6.78;100.00
18533;BME280;9396;51.510;11.934;2023-02-12T06:16:43;102579.75;;;6.75;100.00
18533;BME280;9396;51.510;11.934;2023-02-12T06:19:10;102589.47;;;6.75;100.00
18533;BME280;9396;51.510;11.934;2023-02-12T06:21:36;102587.22;;;6.67;100.00
18533;BME280;9396;51.510;11.934;2023-02-12T06:24:04;102583.34;;;6.74;100.00
18533;BME280;9396;51.510;11.934;2023-02-12T06:26:30;102587.91;;;6.71;100.00
18533;BME280;9396;51.510;11.934;2023-02-12T06:28:57;102585.81;;;6.77;100.00
18533;BME280;9396;51.510;11.934;2023-02-12T06:31:28;102592.59;;;6.83;100.00
18533;BME280;9396;51.510;11.934;2023-02-12T06:33:56;102590.81;;;6.83;100.00
18533;BME280;9396;51.510;11.934;2023-02-12T06:36:23;102597.72;;;6.86;100.00
18533;BME280;9396;51.510;11.934;2023-02-12T06:38:50;102601.41;;;6.83;100.00
18533;BME280;9396;51.510;11.934;2023-02-12T06:41:17;102603.78;;;6.88;100.00
18533;BME280;9396;51.510;11.934;2023-02-12T06:43:44;102605.56;;;6.87;100.00
18533;BME280;9396;51.510;11.934;2023-02-12T06:46:11;102589.00;;;6.84;100.00
18533;BME280;9396;51.510;11.934;2023-02-12T06:48:39;102468.16;;;6.16;100.00
18533;BME280;9396;51.510;11.934;2023-02-12T06:51:07;102602.94;;;6.87;100.00
18533;BME280;9396;51.510;11.934;2023-02-12T06:53:35;102612.50;;;6.90;100.00
18533;BME280;9396;51.510;11.934;2023-02-12T06:56:02;102609.16;;;6.86;100.00
18533;BME280;9396;51.510;11.934;2023-02-12T06:58:29;102613.91;;;6.80;100.00
18533;BME280;9396;51.510;11.934;2023-02-12T07:00:55;102619.03;;;6.83;100.00
18533;BME280;9396;51.510;11.934;2023-02-12T07:03:22;102624.41;;;6.81;100.00
18533;BME280;9396;51.510;11.934;2023-02-12T07:05:50;102625.31;;;6.80;100.00
18533;BME280;9396;51.510;11.934;2023-02-12T07:08:17;102627.22;;;6.95;100.00
18533;BME280;9396;51.510;11.934;2023-02-12T07:10:47;102576.00;;;6.62;100.00
18533;BME280;9396;51.510;11.934;2023-02-12T07:13:14;102640.38;;;6.80;100.00
18533;BME280;9396;51.510;11.934;2023-02-12T07:15:41;102637.56;;;6.83;100.00
18533;BME280;9396;51.510;11.934;2023-02-12T07:18:07;102637.91;;;6.94;100.00
18533;BME280;9396;51.510;11.934;2023-02-12T07:20:34;102638.53;;;6.99;100.00
18533;BME280;9396;51.510;11.934;2023-02-12T07:23:02;102655.31;;;6.98;100.00
18533;BME280;9396;51.510;11.934;2023-02-12T07:25:29;102646.28;;;7.02;100.00
18533;BME280;9396;51.510;11.934;2023-02-12T07:27:55;102649.44;;;7.10;100.00
18533;BME280;9396;51.510;11.934;2023-02-12T07:30:22;102648.59;;;6.91;100.00
18533;BME280;9396;51.510;11.934;2023-02-12T07:32:49;102647.44;;;6.96;100.00
18533;BME280;9396;51.510;11.934;2023-02-12T07:35:15;102650.81;;;7.00;100.00
18533;BME280;9396;51.510;11.934;2023-02-12T07:37:42;102658.75;;;7.00;100.00
18533;BME280;9396;51.510;11.934;2023-02-12T07:40:11;102652.44;;;7.02;100.00
18533;BME280;9396;51.510;11.934;2023-02-12T07:42:38;102660.16;;;7.07;100.00
18533;BME280;9396;51.510;11.934;2023-02-12T07:45:05;102660.94;;;7.09;100.00
18533;BME280;9396;51.510;11.934;2023-02-12T07:47:32;102657.50;;;7.07;100.00
18533;BME280;9396;51.510;11.934;2023-02-12T07:50:00;102653.63;;;7.14;100.00
18533;BME280;9396;51.510;11.934;2023-02-12T07:52:26;102656.22;;;7.15;100.00
18533;BME280;9396;51.510;11.934;2023-02-12T07:54:53;102658.28;;;7.09;100.00
18533;BME280;9396;51.510;11.934;2023-02-12T07:57:21;102660.16;;;7.07;100.00
18533;BME280;9396;51.510;11.934;2023-02-12T07:59:47;102664.28;;;7.12;100.00
18533;BME280;9396;51.510;11.934;2023-02-12T08:02:14;102667.88;;;7.11;100.00
18533;BME280;9396;51.510;11.934;2023-02-12T08:04:41;102663.13;;;7.18;100.00
18533;BME280;9396;51.510;11.934;2023-02-12T08:07:07;102663.69;;;7.24;100.00
18533;BME280;9396;51.510;11.934;2023-02-12T08:09:34;102674.66;;;7.34;100.00
18533;BME280;9396;51.510;11.934;2023-02-12T08:12:01;102671.56;;;7.26;100.00
18533;BME280;9396;51.510;11.934;2023-02-12T08:14:29;102668.03;;;7.25;100.00
18533;BME280;9396;51.510;11.934;2023-02-12T08:16:55;102675.00;;;7.28;100.00
18533;BME280;9396;51.510;11.934;2023-02-12T08:19:22;102677.75;;;7.25;100.00
18533;BME280;9396;51.510;11.934;2023-02-12T08:21:49;102676.53;;;7.15;100.00
18533;BME280;9396;51.510;11.934;2023-02-12T08:24:16;102680.56;;;7.22;100.00
18533;BME280;9396;51.510;11.934;2023-02-12T08:26:42;102678.38;;;7.30;100.00
18533;BME280;9396;51.510;11.934;2023-02-12T08:29:11;102679.72;;;7.21;100.00
18533;BME280;9396;51.510;11.934;2023-02-12T08:31:41;102681.56;;;7.19;100.00
18533;BME280;9396;51.510;11.934;2023-02-12T08:34:15;102678.72;;;7.41;100.00
18533;BME280;9396;51.510;11.934;2023-02-12T08:36:42;102683.69;;;7.47;100.00
18533;BME280;9396;51.510;11.934;2023-02-12T08:39:09;102686.03;;;7.53;100.00
18533;BME280;9396;51.510;11.934;2023-02-12T08:41:36;102683.47;;;7.69;100.00
18533;BME280;9396;51.510;11.934;2023-02-12T08:44:03;102682.91;;;7.79;100.00
18533;BME280;9396;51.510;11.934;2023-02-12T08:46:32;102681.50;;;7.72;100.00
18533;BME280;9396;51.510;11.934;2023-02-12T08:49:02;102687.13;;;7.66;100.00
18533;BME280;9396;51.510;11.934;2023-02-12T08:51:30;102689.84;;;7.65;100.00
18533;BME280;9396;51.510;11.934;2023-02-12T08:53:59;102691.78;;;7.78;100.00
18533;BME280;9396;51.510;11.934;2023-02-12T08:56:27;102693.97;;;7.70;100.00
18533;BME280;9396;51.510;11.934;2023-02-12T08:58:56;102703.00;;;7.66;100.00
18533;BME280;9396;51.510;11.934;2023-02-12T09:01:25;102710.16;;;7.64;100.00
18533;BME280;9396;51.510;11.934;2023-02-12T09:03:52;102706.03;;;7.58;100.00
18533;BME280;9396;51.510;11.934;2023-02-12T09:06:22;102718.13;;;7.64;100.00
18533;BME280;9396;51.510;11.934;2023-02-12T09:08:51;102719.94;;;7.64;100.00
18533;BME280;9396;51.510;11.934;2023-02-12T09:11:20;102714.53;;;7.48;100.00
18533;BME280;9396;51.510;11.934;2023-02-12T09:13:49;102719.75;;;7.49;100.00
18533;BME280;9396;51.510;11.934;2023-02-12T09:16:15;102726.53;;;7.55;100.00
18533;BME280;9396;51.510;11.934;2023-02-12T09:18:42;102729.34;;;7.52;100.00
18533;BME280;9396;51.510;11.934;2023-02-12T09:21:11;102729.03;;;7.58;100.00
18533;BME280;9396;51.510;11.934;2023-02-12T09:23:40;102736.03;;;7.59;100.00
18533;BME280;9396;51.510;11.934;2023-02-12T09:26:08;102736.13;;;7.57;100.00
18533;BME280;9396;51.510;11.934;2023-02-12T09:28:36;102740.38;;;7.60;100.00
18533;BME280;9396;51.510;11.934;2023-02-12T09:31:06;102737.00;;;7.58;100.00
18533;BME280;9396;51.510;11.934;2023-02-12T09:33:34;102741.41;;;7.75;100.00
18533;BME280;9396;51.510;11.934;2023-02-12T09:36:01;102745.38;;;7.66;100.00
18533;BME280;9396;51.510;11.934;2023-02-12T09:38:28;102745.22;;;7.69;100.00
18533;BME280;9396;51.510;11.934;2023-02-12T09:41:10;102751.16;;;7.74;100.00
18533;BME280;9396;51.510;11.934;2023-02-12T09:43:43;102753.13;;;7.71;100.00
18533;BME280;9396;51.510;11.934;2023-02-12T09:46:15;102758.34;;;7.72;100.00
18533;BME280;9396;51.510;11.934;2023-02-12T09:48:53;102754.50;;;7.60;100.00
18533;BME280;9396;51.510;11.934;2023-02-12T09:51:22;102753.25;;;7.68;100.00
18533;BME280;9396;51.510;11.934;2023-02-12T09:54:00;102764.88;;;7.82;100.00
18533;BME280;9396;51.510;11.934;2023-02-12T09:56:29;102771.72;;;7.86;100.00
18533;BME280;9396;51.510;11.934;2023-02-12T09:58:58;102759.88;;;7.93;100.00
18533;BME280;9396;51.510;11.934;2023-02-12T10:01:26;102762.44;;;7.95;100.00
18533;BME280;9396;51.510;11.934;2023-02-12T10:03:54;102771.72;;;8.03;100.00
18533;BME280;9396;51.510;11.934;2023-02-12T10:06:24;102764.38;;;8.08;100.00
18533;BME280;9396;51.510;11.934;2023-02-12T10:09:09;102764.38;;;8.08;100.00
18533;BME280;9396;51.510;11.934;2023-02-12T10:11:54;102675.22;;;7.57;100.00
18533;BME280;9396;51.510;11.934;2023-02-12T10:14:33;102769.06;;;8.03;100.00
18533;BME280;9396;51.510;11.934;2023-02-12T10:17:12;102782.19;;;8.06;100.00
18533;BME280;9396;51.510;11.934;2023-02-12T10:19:58;102772.78;;;7.99;100.00
18533;BME280;9396;51.510;11.934;2023-02-12T10:22:34;102780.44;;;8.05;100.00
18533;BME280;9396;51.510;11.934;2023-02-12T10:25:19;102775.88;;;7.92;100.00
18533;BME280;9396;51.510;11.934;2023-02-12T10:27:53;102774.84;;;7.94;100.00
18533;BME280;9396;51.510;11.934;2023-02-12T10:30:21;102772.09;;;7.96;100.00
18533;BME280;9396;51.510;11.934;2023-02-12T10:32:53;102772.78;;;7.99;100.00
18533;BME280;9396;51.510;11.934;2023-02-12T10:35:20;102764.66;;;7.87;100.00
18533;BME280;9396;51.510;11.934;2023-02-12T10:37:54;102775.38;;;7.84;100.00
18533;BME280;9396;51.510;11.934;2023-02-12T10:40:25;102768.22;;;7.86;100.00
18533;BME280;9396;51.510;11.934;2023-02-12T10:42:56;102764.78;;;7.84;100.00
18533;BME280;9396;51.510;11.934;2023-02-12T10:45:27;102763.16;;;7.81;100.00
18533;BME280;9396;51.510;11.934;2023-02-12T10:48:03;102757.31;;;7.92;100.00
18533;BME280;9396;51.510;11.934;2023-02-12T10:50:39;102765.34;;;7.90;100.00
18533;BME280;9396;51.510;11.934;2023-02-12T10:53:12;102761.97;;;7.70;100.00
18533;BME280;9396;51.510;11.934;2023-02-12T10:55:42;102763.31;;;7.78;100.00
18533;BME280;9396;51.510;11.934;2023-02-12T10:58:18;102761.59;;;7.77;100.00
18533;BME280;9396;51.510;11.934;2023-02-12T11:00:45;102753.34;;;7.83;100.00
18533;BME280;9396;51.510;11.934;2023-02-12T11:03:20;102748.66;;;7.88;100.00
18533;BME280;9396;51.510;11.934;2023-02-12T11:05:48;102758.31;;;7.89;100.00
18533;BME280;9396;51.510;11.934;2023-02-12T11:08:31;102763.53;;;7.91;100.00
18533;BME280;9396;51.510;11.934;2023-02-12T11:11:03;102754.59;;;7.93;100.00
18533;BME280;9396;51.510;11.934;2023-02-12T11:13:35;102748.94;;;7.99;100.00
18533;BME280;9396;51.510;11.934;2023-02-12T11:16:03;102748.63;;;8.05;100.00
18533;BME280;9396;51.510;11.934;2023-02-12T11:18:31;102741.06;;;8.15;100.00
18533;BME280;9396;51.510;11.934;2023-02-12T11:21:00;102743.47;;;8.19;100.00
18533;BME280;9396;51.510;11.934;2023-02-12T11:23:29;102751.59;;;8.16;100.00
18533;BME280;9396;51.510;11.934;2023-02-12T11:25:58;102747.22;;;8.15;100.00
18533;BME280;9396;51.510;11.934;2023-02-12T11:28:25;102736.94;;;8.09;100.00
18533;BME280;9396;51.510;11.934;2023-02-12T11:30:56;102731.00;;;8.21;100.00
18533;BME280;9396;51.510;11.934;2023-02-12T11:33:25;102737.38;;;8.17;100.00
18533;BME280;9396;51.510;11.934;2023-02-12T11:35:55;102736.56;;;8.17;100.00
18533;BME280;9396;51.510;11.934;2023-02-12T11:38:25;102738.72;;;8.09;100.00
18533;BME280;9396;51.510;11.934;2023-02-12T11:40:59;102736.56;;;8.00;100.00
18533;BME280;9396;51.510;11.934;2023-02-12T11:43:27;102729.47;;;8.00;100.00
18533;BME280;9396;51.510;11.934;2023-02-12T11:45:58;102728.81;;;8.12;100.00
18533;BME280;9396;51.510;11.934;2023-02-12T11:48:29;102742.53;;;8.20;100.00
18533;BME280;9396;51.510;11.934;2023-02-12T11:51:00;102732.78;;;8.21;100.00
18533;BME280;9396;51.510;11.934;2023-02-12T11:53:29;102727.09;;;8.28;100.00
18533;BME280;9396;51.510;11.934;2023-02-12T11:55:59;102729.59;;;8.31;100.00
18533;BME280;9396;51.510;11.934;2023-02-12T11:58:27;102724.28;;;8.31;100.00
18533;BME280;9396;51.510;11.934;2023-02-12T12:01:04;102722.50;;;8.32;100.00
18533;BME280;9396;51.510;11.934;2023-02-12T12:03:37;102722.38;;;8.50;100.00
18533;BME280;9396;51.510;11.934;2023-02-12T12:06:13;102725.06;;;8.33;100.00
18533;BME280;9396;51.510;11.934;2023-02-12T12:08:48;102730.22;;;8.36;100.00
18533;BME280;9396;51.510;11.934;2023-02-12T12:11:19;102727.22;;;8.42;100.00
18533;BME280;9396;51.510;11.934;2023-02-12T12:13:53;102730.16;;;8.53;100.00
18533;BME280;9396;51.510;11.934;2023-02-12T12:16:29;102726.03;;;8.48;100.00
18533;BME280;9396;51.510;11.934;2023-02-12T12:19:19;102719.88;;;8.47;100.00
18533;BME280;9396;51.510;11.934;2023-02-12T12:22:15;102720.91;;;8.60;100.00
18533;BME280;9396;51.510;11.934;2023-02-12T12:24:46;102723.56;;;8.60;100.00
18533;BME280;9396;51.510;11.934;2023-02-12T12:27:22;102712.38;;;8.71;100.00
18533;BME280;9396;51.510;11.934;2023-02-12T12:30:18;102720.22;;;8.57;100.00
18533;BME280;9396;51.510;11.934;2023-02-12T12:32:51;102714.00;;;8.74;100.00
18533;BME280;9396;51.510;11.934;2023-02-12T12:35:27;102717.50;;;8.74;100.00
18533;BME280;9396;51.510;11.934;2023-02-12T12:38:01;102711.34;;;8.74;100.00
18533;BME280;9396;51.510;11.934;2023-02-12T12:40:41;102709.03;;;8.68;100.00
18533;BME280;9396;51.510;11.934;2023-02-12T12:43:23;102717.25;;;8.79;100.00
18533;BME280;9396;51.510;11.934;2023-02-12T12:49:42;102711.16;;;8.77;100.00
18533;BME280;9396;51.510;11.934;2023-02-12T12:52:39;102699.72;;;8.92;100.00
18533;BME280;9396;51.510;11.934;2023-02-12T12:55:29;102677.44;;;8.79;100.00
18533;BME280;9396;51.510;11.934;2023-02-12T12:58:08;102706.88;;;9.05;100.00
18533;BME280;9396;51.510;11.934;2023-02-12T13:00:51;102700.84;;;9.17;100.00
18533;BME280;9396;51.510;11.934;2023-02-12T13:03:48;102700.19;;;9.14;100.00
18533;BME280;9396;51.510;11.934;2023-02-12T13:06:30;102696.66;;;9.29;100.00
18533;BME280;9396;51.510;11.934;2023-02-12T13:09:18;102689.38;;;9.17;100.00
18533;BME280;9396;51.510;11.934;2023-02-12T13:12:07;102694.63;;;9.03;100.00